createdAt,value
2022-11-16T00:01:33.435Z,93576.38
2022-11-16T00:04:01.254Z,93575.09
2022-11-16T00:06:28.260Z,93568.78
2022-11-16T00:09:14.529Z,93566.69
2022-11-16T00:11:42.517Z,93572.22
2022-11-16T00:14:09.402Z,93570.13
2022-11-16T00:16:36.032Z,93570.66
2022-11-16T00:19:04.633Z,93565.91
2022-11-16T00:21:31.656Z,93556.22
2022-11-16T00:23:58.620Z,93551.19
2022-11-16T00:26:25.228Z,93549.34
2022-11-16T00:28:53.986Z,93544.88
2022-11-16T00:31:21.105Z,93549.38
2022-11-16T00:33:48.054Z,93544.94
2022-11-16T00:36:14.855Z,93538.09
2022-11-16T00:38:41.733Z,93537.06
2022-11-16T00:41:08.492Z,93528.88
2022-11-16T00:43:35.428Z,93533.09
2022-11-16T00:46:04.264Z,93538.88
2022-11-16T00:48:31.101Z,93535.47
2022-11-16T00:50:57.882Z,93527.88
2022-11-16T00:53:24.423Z,93527.34
2022-11-16T00:55:51.191Z,93526.78
2022-11-16T00:58:19.887Z,93513.41
2022-11-16T01:00:51.342Z,93518.13
2022-11-16T01:03:19.695Z,93516.00
2022-11-16T01:05:46.231Z,93513.63
2022-11-16T01:08:14.166Z,93511.25
2022-11-16T01:10:41.623Z,93513.09
2022-11-16T01:13:10.943Z,93511.78
2022-11-16T01:15:37.426Z,93514.16
2022-11-16T01:18:03.945Z,93520.72
2022-11-16T01:20:31.814Z,93518.09
2022-11-16T01:22:58.535Z,93518.88
2022-11-16T01:25:25.062Z,93510.69
2022-11-16T01:27:51.665Z,93507.03
2022-11-16T01:30:25.344Z,93502.31
2022-11-16T01:33:05.398Z,93501.25
2022-11-16T01:35:33.384Z,93512.00
2022-11-16T01:37:59.900Z,93509.88
2022-11-16T01:40:27.096Z,93513.59
2022-11-16T01:42:55.144Z,93512.81
2022-11-16T01:45:23.574Z,93514.38
2022-11-16T01:47:53.606Z,93517.22
2022-11-16T01:50:23.066Z,93515.38
2022-11-16T01:52:54.243Z,93525.41
2022-11-16T01:55:22.600Z,93515.94
2022-11-16T01:58:15.251Z,93518.56
2022-11-16T02:00:42.133Z,93503.84
2022-11-16T02:03:27.654Z,93507.25
2022-11-16T02:06:04.308Z,93503.84
2022-11-16T02:09:00.675Z,93504.09
2022-11-16T02:11:39.689Z,93506.25
2022-11-16T02:14:15.554Z,93512.81
2022-11-16T02:16:48.427Z,93523.34
2022-11-16T02:19:29.386Z,93520.72
2022-11-16T02:21:59.194Z,93523.91
2022-11-16T02:24:46.989Z,93517.31
2022-11-16T02:27:28.618Z,93516.25
2022-11-16T02:29:57.028Z,93522.53
2022-11-16T02:32:27.087Z,93517.56
2022-11-16T02:34:56.493Z,93507.56
2022-11-16T02:37:24.683Z,93512.28
2022-11-16T02:39:53.389Z,93507.56
2022-11-16T02:42:23.026Z,93507.56
2022-11-16T02:44:52.153Z,93513.88
2022-11-16T02:47:22.225Z,93501.81
2022-11-16T02:49:52.237Z,93502.63
2022-11-16T02:52:19.727Z,93503.16
2022-11-16T02:54:47.392Z,93506.59
2022-11-16T02:57:23.626Z,93523.16
2022-11-16T02:59:51.905Z,93526.28
2022-11-16T03:02:23.453Z,93527.09
2022-11-16T03:04:52.169Z,93528.66
2022-11-16T03:07:23.298Z,93533.13
2022-11-16T03:09:51.347Z,93531.25
2022-11-16T03:12:20.290Z,93530.47
2022-11-16T03:14:49.486Z,93522.84
2022-11-16T03:17:20.903Z,93519.94
2022-11-16T03:19:53.888Z,93522.84
2022-11-16T03:22:26.426Z,93514.97
2022-11-16T03:24:55.142Z,93523.63
2022-11-16T03:27:25.345Z,93520.00
2022-11-16T03:29:58.977Z,93527.34
2022-11-16T03:32:29.243Z,93527.09
2022-11-16T03:35:03.250Z,93534.97
2022-11-16T03:37:32.352Z,93545.72
2022-11-16T03:40:01.321Z,93539.16
2022-11-16T03:42:31.878Z,93555.94
2022-11-16T03:44:59.224Z,93558.84
2022-11-16T03:47:25.891Z,93559.88
2022-11-16T03:49:53.187Z,93568.03
2022-11-16T03:52:21.472Z,93568.81
2022-11-16T03:54:50.341Z,93575.91
2022-11-16T03:57:18.829Z,93584.81
2022-11-16T03:59:52.312Z,93582.47
2022-11-16T04:02:20.676Z,93591.91
2022-11-16T04:05:10.663Z,93601.66
2022-11-16T04:07:58.045Z,93604.28
2022-11-16T04:10:44.070Z,93606.91
2022-11-16T04:13:31.117Z,93617.66
2022-11-16T04:16:16.510Z,93617.13
2022-11-16T04:19:03.202Z,93616.88
2022-11-16T04:21:51.601Z,93629.25
2022-11-16T04:24:22.917Z,93627.94
2022-11-16T04:27:09.117Z,93650.28
2022-11-16T04:29:36.360Z,93636.84
2022-11-16T04:32:21.506Z,93645.03
2022-11-16T04:35:06.766Z,93643.44
2022-11-16T04:37:49.340Z,93641.63
2022-11-16T04:40:23.137Z,93641.63
2022-11-16T04:42:53.415Z,93643.44
2022-11-16T04:45:38.714Z,93647.13
2022-11-16T04:48:07.533Z,93651.31
2022-11-16T04:50:36.193Z,93653.94
2022-11-16T04:53:03.429Z,93652.13
2022-11-16T04:55:33.550Z,93656.84
2022-11-16T04:58:00.734Z,93656.56
2022-11-16T05:00:27.467Z,93653.69
2022-11-16T05:03:00.780Z,93658.94
2022-11-16T05:05:28.520Z,93657.38
2022-11-16T05:07:55.623Z,93657.91
2022-11-16T05:10:26.952Z,93661.84
2022-11-16T05:12:55.790Z,93661.03
2022-11-16T05:15:23.349Z,93662.34
2022-11-16T05:17:51.354Z,93654.47
2022-11-16T05:20:40.648Z,93659.44
2022-11-16T05:23:28.801Z,93663.38
2022-11-16T05:25:58.802Z,93663.38
2022-11-16T05:28:27.477Z,93665.50
2022-11-16T05:30:54.157Z,93662.84
2022-11-16T05:33:23.170Z,93675.97
2022-11-16T05:35:51.085Z,93657.28
2022-11-16T05:38:19.062Z,93664.38
2022-11-16T05:40:48.966Z,93667.25
2022-11-16T05:43:15.715Z,93662.53
2022-11-16T05:45:53.103Z,93657.50
2022-11-16T05:48:20.095Z,93661.97
2022-11-16T05:50:47.679Z,93661.72
2022-11-16T05:53:21.037Z,93664.59
2022-11-16T05:55:48.603Z,93654.59
2022-11-16T05:58:16.757Z,93656.94
2022-11-16T06:00:45.733Z,93654.03
2022-11-16T06:03:13.712Z,93654.03
2022-11-16T06:05:40.950Z,93650.63
2022-11-16T06:08:09.513Z,93653.25
2022-11-16T06:10:37.206Z,93655.59
2022-11-16T06:13:05.080Z,93656.13
2022-11-16T06:15:32.250Z,93647.69
2022-11-16T06:17:58.898Z,93651.09
2022-11-16T06:20:27.253Z,93645.56
2022-11-16T06:22:54.444Z,93649.25
2022-11-16T06:25:22.177Z,93648.19
2022-11-16T06:27:48.731Z,93646.06
2022-11-16T06:30:19.698Z,93647.94
2022-11-16T06:32:46.491Z,93646.06
2022-11-16T06:35:13.121Z,93642.91
2022-11-16T06:37:41.414Z,93644.47
2022-11-16T06:40:09.329Z,93651.31
2022-11-16T06:42:41.110Z,93645.75
2022-11-16T06:45:10.210Z,93642.88
2022-11-16T06:47:40.756Z,93631.78
2022-11-16T06:50:07.836Z,93642.56
2022-11-16T06:52:34.646Z,93645.72
2022-11-16T06:55:03.170Z,93650.16
2022-11-16T06:57:35.666Z,93645.69
2022-11-16T07:00:04.252Z,93644.34
2022-11-16T07:02:32.728Z,93650.41
2022-11-16T07:05:03.467Z,93648.06
2022-11-16T07:07:31.374Z,93643.56
2022-11-16T07:09:58.086Z,93644.88
2022-11-16T07:12:27.279Z,93654.06
2022-11-16T07:14:56.409Z,93651.69
2022-11-16T07:17:24.416Z,93650.91
2022-11-16T07:19:52.367Z,93650.66
2022-11-16T07:22:18.947Z,93646.44
2022-11-16T07:24:46.327Z,93645.91
2022-11-16T07:27:13.066Z,93641.69
2022-11-16T07:29:45.113Z,93643.50
2022-11-16T07:32:32.104Z,93650.09
2022-11-16T07:35:06.930Z,93653.25
2022-11-16T07:37:33.507Z,93655.34
2022-11-16T07:40:00.140Z,93657.44
2022-11-16T07:42:27.952Z,93651.09
2022-11-16T07:45:22.408Z,93656.09
2022-11-16T07:47:54.346Z,93654.78
2022-11-16T07:50:59.595Z,93662.13
2022-11-16T07:53:26.225Z,93660.56
2022-11-16T07:55:53.619Z,93667.38
2022-11-16T07:58:21.276Z,93667.91
2022-11-16T08:00:50.682Z,93677.91
2022-11-16T08:03:21.895Z,93672.63
2022-11-16T08:05:58.246Z,93668.44
2022-11-16T08:08:24.784Z,93679.47
2022-11-16T08:10:51.649Z,93676.78
2022-11-16T08:13:18.835Z,93680.72
2022-11-16T08:15:46.899Z,93683.09
2022-11-16T08:18:14.840Z,93679.69
2022-11-16T08:20:41.373Z,93671.22
2022-11-16T08:23:08.319Z,93682.50
2022-11-16T08:25:36.028Z,93676.13
2022-11-16T08:28:02.961Z,93680.06
2022-11-16T08:30:30.581Z,93679.28
2022-11-16T08:32:58.066Z,93681.94
2022-11-16T08:35:26.713Z,93679.28
2022-11-16T08:37:53.250Z,93681.38
2022-11-16T08:40:19.825Z,93684.53
2022-11-16T08:42:47.773Z,93687.94
2022-11-16T08:45:15.478Z,93698.50
2022-11-16T08:47:42.491Z,93695.59
2022-11-16T08:50:09.570Z,93695.03
2022-11-16T08:52:38.700Z,93696.59
2022-11-16T08:55:06.629Z,93698.44
2022-11-16T08:57:33.386Z,93702.13
2022-11-16T09:00:04.735Z,93697.06
2022-11-16T09:02:31.553Z,93700.22
2022-11-16T09:04:58.079Z,93702.03
2022-11-16T09:07:24.880Z,93706.47
2022-11-16T09:09:53.499Z,93710.16
2022-11-16T09:12:20.286Z,93713.31
2022-11-16T09:14:46.979Z,93713.31
2022-11-16T09:17:14.871Z,93712.78
2022-11-16T09:19:44.191Z,93709.56
2022-11-16T09:22:10.926Z,93713.25
2022-11-16T09:24:37.466Z,93713.19
2022-11-16T09:27:07.082Z,93717.66
2022-11-16T09:29:33.670Z,93724.53
2022-11-16T09:32:00.413Z,93720.81
2022-11-16T09:34:26.965Z,93721.59
2022-11-16T09:36:53.545Z,93719.47
2022-11-16T09:39:30.999Z,93721.84
2022-11-16T09:42:01.548Z,93724.44
2022-11-16T09:44:43.034Z,93735.75
2022-11-16T09:47:15.153Z,93728.03
2022-11-16T09:49:43.820Z,93728.03
2022-11-16T09:52:14.084Z,93730.13
2022-11-16T09:54:42.823Z,93726.66
2022-11-16T09:57:12.769Z,93723.19
2022-11-16T09:59:41.318Z,93736.34
2022-11-16T10:02:16.754Z,93733.13
2022-11-16T10:04:47.296Z,93738.94
2022-11-16T10:07:14.901Z,93740.50
2022-11-16T10:09:41.958Z,93725.16
2022-11-16T10:12:11.993Z,93732.78
2022-11-16T10:14:47.389Z,93731.44
2022-11-16T10:17:20.210Z,93727.97
2022-11-16T10:19:53.030Z,93725.06
2022-11-16T10:22:24.802Z,93724.50
2022-11-16T10:24:56.437Z,93725.28
2022-11-16T10:27:30.784Z,93720.50
2022-11-16T10:30:02.711Z,93718.84
2022-11-16T10:32:32.954Z,93723.59
2022-11-16T10:35:03.225Z,93720.88
2022-11-16T10:37:31.231Z,93719.19
2022-11-16T10:39:57.788Z,93718.56
2022-11-16T10:42:31.150Z,93706.06
2022-11-16T10:45:02.727Z,93707.03
2022-11-16T10:47:36.645Z,93706.66
2022-11-16T10:50:08.714Z,93711.25
2022-11-16T10:52:35.343Z,93707.13
2022-11-16T10:55:02.213Z,93708.00
2022-11-16T10:57:53.177Z,93701.75
2022-11-16T11:00:33.324Z,93712.25
2022-11-16T11:03:01.871Z,93715.19
2022-11-16T11:05:29.918Z,93700.09
2022-11-16T11:08:01.733Z,93704.38
2022-11-16T11:10:29.959Z,93699.69
2022-11-16T11:13:05.135Z,93705.75
2022-11-16T11:15:31.986Z,93701.03
2022-11-16T11:18:17.460Z,93708.19
2022-11-16T11:20:45.621Z,93699.19
2022-11-16T11:23:14.049Z,93698.41
2022-11-16T11:25:41.759Z,93699.75
2022-11-16T11:28:19.727Z,93700.91
2022-11-16T11:30:52.165Z,93700.22
2022-11-16T11:33:23.549Z,93707.41
2022-11-16T11:35:57.320Z,93703.25
2022-11-16T11:38:23.874Z,93705.16
2022-11-16T11:40:56.348Z,93707.31
2022-11-16T11:43:27.341Z,93710.53
2022-11-16T11:45:56.690Z,93707.69
2022-11-16T11:48:36.402Z,93703.75
2022-11-16T11:51:09.014Z,93709.31
2022-11-16T11:53:46.591Z,93711.94
2022-11-16T11:56:14.161Z,93701.94
2022-11-16T11:58:41.609Z,93705.38
2022-11-16T12:01:26.007Z,93693.44
2022-11-16T12:04:05.202Z,93689.69
2022-11-16T12:06:42.642Z,93691.75
2022-11-16T12:09:25.355Z,93681.88
2022-11-16T12:11:59.857Z,93677.81
2022-11-16T12:14:32.346Z,93681.69
2022-11-16T12:17:06.130Z,93679.75
2022-11-16T12:19:45.839Z,93678.59
2022-11-16T12:22:17.398Z,93675.09
2022-11-16T12:24:53.901Z,93671.00
2022-11-16T12:27:27.054Z,93666.63
2022-11-16T12:29:59.217Z,93672.06
2022-11-16T12:32:44.320Z,93666.69
2022-11-16T12:35:21.574Z,93674.72
2022-11-16T12:37:53.858Z,93675.00
2022-11-16T12:40:30.346Z,93682.16
2022-11-16T12:43:01.971Z,93678.47
2022-11-16T12:45:35.422Z,93680.03
2022-11-16T12:48:19.558Z,93677.97
2022-11-16T12:50:53.436Z,93673.28
2022-11-16T12:53:40.932Z,93667.13
2022-11-16T12:56:12.326Z,93665.66
2022-11-16T12:58:47.370Z,93663.22
2022-11-16T13:01:17.261Z,93655.06
2022-11-16T13:03:47.455Z,93660.94
2022-11-16T13:06:18.910Z,93657.34
2022-11-16T13:08:49.737Z,93662.41
2022-11-16T13:11:20.633Z,93659.88
2022-11-16T13:13:53.403Z,93661.06
2022-11-16T13:16:21.504Z,93658.50
2022-11-16T13:18:48.184Z,93664.38
2022-11-16T13:21:28.368Z,93659.38
2022-11-16T13:24:08.037Z,93656.22
2022-11-16T13:26:38.767Z,93659.97
2022-11-16T13:29:12.759Z,93652.03
2022-11-16T13:31:42.613Z,93645.16
2022-11-16T13:34:14.299Z,93649.66
2022-11-16T13:36:45.017Z,93652.09
2022-11-16T13:39:18.720Z,93647.69
2022-11-16T13:41:49.185Z,93650.41
2022-11-16T13:44:27.193Z,93645.22
2022-11-16T13:46:56.958Z,93648.16
2022-11-16T13:49:31.936Z,93643.66
2022-11-16T13:52:11.647Z,93643.84
2022-11-16T13:54:48.637Z,93636.91
2022-11-16T13:57:23.637Z,93645.03
2022-11-16T13:59:53.634Z,93630.94
2022-11-16T14:02:30.712Z,93630.94
2022-11-16T14:04:58.558Z,93626.22
2022-11-16T14:07:31.312Z,93634.94
2022-11-16T14:09:57.999Z,93636.03
2022-11-16T14:12:57.733Z,93637.09
2022-11-16T14:15:25.845Z,93621.22
2022-11-16T14:17:53.622Z,93626.22
2022-11-16T14:20:38.116Z,93612.00
2022-11-16T14:23:11.709Z,93614.94
2022-11-16T14:25:40.499Z,93614.72
2022-11-16T14:28:13.228Z,93614.25
2022-11-16T14:30:46.900Z,93621.22
2022-11-16T14:33:16.503Z,93604.84
2022-11-16T14:35:43.129Z,93610.72
2022-11-16T14:38:17.833Z,93605.00
2022-11-16T14:40:46.208Z,93604.63
2022-11-16T14:43:17.514Z,93597.38
2022-11-16T14:45:47.157Z,93595.88
2022-11-16T14:48:15.224Z,93599.50
2022-11-16T14:50:43.554Z,93588.78
2022-11-16T14:53:12.192Z,93597.09
2022-11-16T14:55:42.541Z,93592.72
2022-11-16T14:58:15.984Z,93594.44
2022-11-16T15:00:51.702Z,93603.59
2022-11-16T15:03:18.484Z,93604.25
2022-11-16T15:05:44.983Z,93601.16
2022-11-16T15:08:14.916Z,93605.25
2022-11-16T15:10:49.508Z,93604.03
2022-11-16T15:13:20.513Z,93593.63
2022-11-16T15:15:47.286Z,93595.88
2022-11-16T15:18:17.631Z,93592.59
2022-11-16T15:20:48.707Z,93589.00
2022-11-16T15:23:15.563Z,93594.63
2022-11-16T15:25:43.311Z,93598.69
2022-11-16T15:28:16.004Z,93596.38
2022-11-16T15:30:45.068Z,93596.16
2022-11-16T15:33:15.856Z,93596.16
2022-11-16T15:35:42.392Z,93597.22
2022-11-16T15:38:13.800Z,93597.22
2022-11-16T15:40:43.192Z,93602.78
2022-11-16T15:43:10.467Z,93607.28
2022-11-16T15:45:38.745Z,93605.41
2022-11-16T15:48:05.734Z,93610.41
2022-11-16T15:50:32.378Z,93607.00
2022-11-16T15:52:59.790Z,93599.16
2022-11-16T15:55:30.621Z,93597.59
2022-11-16T15:57:59.235Z,93586.06
2022-11-16T16:00:26.737Z,93588.75
2022-11-16T16:02:55.391Z,93588.50
2022-11-16T16:05:32.418Z,93587.50
2022-11-16T16:07:59.564Z,93583.34
2022-11-16T16:10:26.461Z,93584.16
2022-11-16T16:12:54.226Z,93582.88
2022-11-16T16:15:22.806Z,93586.56
2022-11-16T16:17:49.603Z,93579.50
2022-11-16T16:20:19.559Z,93583.78
2022-11-16T16:22:46.356Z,93595.72
2022-11-16T16:25:34.030Z,93582.59
2022-11-16T16:28:00.565Z,93583.66
2022-11-16T16:30:27.976Z,93581.28
2022-11-16T16:32:54.512Z,93574.19
2022-11-16T16:35:23.662Z,93577.88
2022-11-16T16:37:50.922Z,93577.91
2022-11-16T16:40:17.921Z,93579.81
2022-11-16T16:42:44.730Z,93576.47
2022-11-16T16:45:14.889Z,93577.09
2022-11-16T16:47:41.378Z,93580.06
2022-11-16T16:50:08.757Z,93575.13
2022-11-16T16:52:36.735Z,93564.41
2022-11-16T16:55:03.806Z,93565.22
2022-11-16T16:57:30.486Z,93579.97
2022-11-16T16:59:57.060Z,93585.25
2022-11-16T17:02:26.067Z,93581.88
2022-11-16T17:04:52.617Z,93584.31
2022-11-16T17:07:19.183Z,93574.59
2022-11-16T17:09:47.112Z,93569.13
2022-11-16T17:12:13.649Z,93569.41
2022-11-16T17:14:40.209Z,93573.91
2022-11-16T17:17:06.723Z,93571.00
2022-11-16T17:19:33.223Z,93563.38
2022-11-16T17:22:00.007Z,93562.59
2022-11-16T17:24:26.818Z,93562.34
2022-11-16T17:26:54.773Z,93567.34
2022-11-16T17:29:21.386Z,93562.91
2022-11-16T17:31:48.029Z,93563.44
2022-11-16T17:34:14.666Z,93560.81
2022-11-16T17:36:41.397Z,93555.81
2022-11-16T17:39:07.888Z,93554.53
2022-11-16T17:41:34.597Z,93560.31
2022-11-16T17:44:02.636Z,93556.94
2022-11-16T17:46:29.202Z,93555.09
2022-11-16T17:48:56.128Z,93551.13
2022-11-16T17:51:23.843Z,93546.69
2022-11-16T17:53:50.878Z,93550.38
2022-11-16T17:56:18.846Z,93547.00
2022-11-16T17:58:45.565Z,93539.91
2022-11-16T18:01:14.192Z,93534.66
2022-11-16T18:03:40.766Z,93543.06
2022-11-16T18:06:08.690Z,93548.56
2022-11-16T18:08:35.889Z,93549.63
2022-11-16T18:11:06.334Z,93543.06
2022-11-16T18:13:33.487Z,93544.84
2022-11-16T18:16:04.475Z,93540.66
2022-11-16T18:18:32.449Z,93540.41
2022-11-16T18:20:59.182Z,93536.47
2022-11-16T18:23:25.722Z,93533.56
2022-11-16T18:25:52.246Z,93529.41
2022-11-16T18:28:18.993Z,93519.97
2022-11-16T18:30:45.743Z,93520.75
2022-11-16T18:33:12.405Z,93520.22
2022-11-16T18:35:40.405Z,93525.75
2022-11-16T18:38:08.253Z,93522.63
2022-11-16T18:40:35.024Z,93528.41
2022-11-16T18:43:01.484Z,93517.91
2022-11-16T18:45:28.182Z,93526.56
2022-11-16T18:47:54.680Z,93522.63
2022-11-16T18:50:26.492Z,93522.63
2022-11-16T18:52:56.557Z,93510.81
2022-11-16T18:55:23.267Z,93509.28
2022-11-16T18:57:49.759Z,93514.25
2022-11-16T19:00:19.143Z,93506.13
2022-11-16T19:02:45.641Z,93489.84
2022-11-16T19:05:12.160Z,93491.16
2022-11-16T19:07:38.932Z,93490.66
2022-11-16T19:10:08.043Z,93484.88
2022-11-16T19:12:34.511Z,93475.72
2022-11-16T19:15:01.236Z,93474.91
2022-11-16T19:17:27.888Z,93468.91
2022-11-16T19:19:54.600Z,93462.84
2022-11-16T19:22:21.246Z,93461.28
2022-11-16T19:24:47.963Z,93458.13
2022-11-16T19:27:16.641Z,93459.19
2022-11-16T19:29:43.304Z,93455.78
2022-11-16T19:32:09.757Z,93451.31
2022-11-16T19:34:36.386Z,93443.69
2022-11-16T19:37:02.968Z,93445.28
2022-11-16T19:39:29.437Z,93446.31
2022-11-16T19:41:55.923Z,93450.78
2022-11-16T19:44:24.076Z,93450.25
2022-11-16T19:46:53.023Z,93442.91
2022-11-16T19:49:21.653Z,93437.91
2022-11-16T19:51:48.732Z,93440.81
2022-11-16T19:54:15.262Z,93440.28
2022-11-16T19:56:42.186Z,93432.41
2022-11-16T19:59:08.929Z,93434.25
2022-11-16T20:01:36.858Z,93436.34
2022-11-16T20:04:03.579Z,93432.66
2022-11-16T20:06:31.082Z,93436.09
2022-11-16T20:09:00.335Z,93428.75
2022-11-16T20:11:27.893Z,93422.97
2022-11-16T20:13:55.968Z,93422.69
2022-11-16T20:16:23.497Z,93421.66
2022-11-16T20:18:52.068Z,93420.34
2022-11-16T20:21:21.802Z,93425.34
2022-11-16T20:23:49.232Z,93425.34
2022-11-16T20:26:15.949Z,93429.50
2022-11-16T20:28:43.407Z,93420.88
2022-11-16T20:31:10.911Z,93422.94
2022-11-16T20:33:37.749Z,93424.25
2022-11-16T20:36:08.019Z,93426.09
2022-11-16T20:38:35.367Z,93417.69
2022-11-16T20:41:08.960Z,93413.00
2022-11-16T20:43:36.044Z,93417.44
2022-11-16T20:46:03.489Z,93416.91
2022-11-16T20:48:30.082Z,93413.25
2022-11-16T20:50:56.756Z,93415.03
2022-11-16T20:53:27.390Z,93424.72
2022-11-16T20:55:54.374Z,93417.91
2022-11-16T20:58:23.775Z,93414.22
2022-11-16T21:00:51.144Z,93406.63
2022-11-16T21:03:17.949Z,93406.38
2022-11-16T21:05:45.107Z,93407.97
2022-11-16T21:08:12.104Z,93416.34
2022-11-16T21:10:40.527Z,93422.34
2022-11-16T21:13:30.463Z,93417.09
2022-11-16T21:15:57.927Z,93416.06
2022-11-16T21:18:30.405Z,93412.38
2022-11-16T21:20:58.828Z,93416.53
2022-11-16T21:23:25.674Z,93417.78
2022-11-16T21:25:53.526Z,93418.78
2022-11-16T21:28:25.305Z,93416.13
2022-11-16T21:30:56.102Z,93401.47
2022-11-16T21:33:22.847Z,93400.66
2022-11-16T21:35:49.342Z,93397.47
2022-11-16T21:38:15.854Z,93394.06
2022-11-16T21:40:43.722Z,93383.56
2022-11-16T21:43:11.928Z,93393.47
2022-11-16T21:45:38.529Z,93389.31
2022-11-16T21:48:05.263Z,93391.38
2022-11-16T21:50:32.528Z,93388.25
2022-11-16T21:52:59.473Z,93387.75
2022-11-16T21:55:26.193Z,93380.66
2022-11-16T21:57:52.693Z,93379.34
2022-11-16T22:00:21.018Z,93384.31
2022-11-16T22:02:47.686Z,93380.66
2022-11-16T22:05:33.153Z,93381.94
2022-11-16T22:08:03.622Z,93383.50
2022-11-16T22:10:30.379Z,93377.50
2022-11-16T22:12:56.922Z,93373.56
2022-11-16T22:15:25.493Z,93387.19
2022-11-16T22:17:52.033Z,93380.09
2022-11-16T22:20:18.762Z,93369.84
2022-11-16T22:22:45.334Z,93371.66
2022-11-16T22:25:13.931Z,93369.56
2022-11-16T22:27:58.784Z,93363.28
2022-11-16T22:30:29.371Z,93348.38
2022-11-16T22:32:55.847Z,93354.13
2022-11-16T22:35:22.353Z,93357.25
2022-11-16T22:37:48.849Z,93357.78
2022-11-16T22:40:17.926Z,93359.34
2022-11-16T22:42:44.703Z,93358.84
2022-11-16T22:45:12.054Z,93350.72
2022-11-16T22:47:39.983Z,93359.34
2022-11-16T22:50:06.631Z,93360.16
2022-11-16T22:52:33.536Z,93363.81
2022-11-16T22:55:00.266Z,93367.47
2022-11-16T22:57:26.716Z,93352.56
2022-11-16T22:59:53.551Z,93353.34
2022-11-16T23:02:20.099Z,93351.78
2022-11-16T23:04:48.289Z,93350.47
2022-11-16T23:07:15.130Z,93339.19
2022-11-16T23:09:42.475Z,93336.81
2022-11-16T23:12:27.726Z,93330.03
2022-11-16T23:15:13.002Z,93326.59
2022-11-16T23:17:39.541Z,93330.25
2022-11-16T23:20:26.962Z,93317.47
2022-11-16T23:23:11.972Z,93303.84
2022-11-16T23:25:57.222Z,93300.94
2022-11-16T23:28:23.861Z,93302.50
2022-11-16T23:30:50.475Z,93292.25
2022-11-16T23:33:16.987Z,93290.41
2022-11-16T23:35:45.095Z,93294.81
2022-11-16T23:38:13.176Z,93288.03
2022-11-16T23:40:39.854Z,93293.28
2022-11-16T23:43:25.594Z,93290.66
2022-11-16T23:45:52.156Z,93283.59
2022-11-16T23:48:18.832Z,93280.97
2022-11-16T23:50:46.950Z,93283.88
2022-11-16T23:53:14.027Z,93290.13
2022-11-16T23:55:40.911Z,93288.56
2022-11-16T23:58:11.327Z,93277.03
